createdAt,value
2022-08-25T00:01:59.615Z,23.57
2022-08-25T00:07:04.124Z,23.54
2022-08-25T00:12:08.801Z,23.51
2022-08-25T00:17:12.176Z,23.60
2022-08-25T00:22:15.102Z,23.58
2022-08-25T00:27:19.569Z,23.62
2022-08-25T00:32:22.538Z,23.58
2022-08-25T00:37:25.498Z,23.61
2022-08-25T00:42:30.053Z,23.59
2022-08-25T00:47:33.034Z,23.57
2022-08-25T00:52:38.827Z,23.58
2022-08-25T00:57:44.933Z,23.58
2022-08-25T01:02:48.199Z,23.52
2022-08-25T01:07:52.541Z,23.51
2022-08-25T01:13:06.373Z,23.53
2022-08-25T01:18:13.471Z,23.55
2022-08-25T01:23:17.771Z,23.52
2022-08-25T01:28:21.656Z,23.54
2022-08-25T01:33:24.758Z,23.55
2022-08-25T01:38:29.070Z,23.52
2022-08-25T01:43:36.967Z,23.43
2022-08-25T01:48:40.035Z,23.48
2022-08-25T01:53:44.588Z,23.52
2022-08-25T01:58:48.886Z,23.49
2022-08-25T02:03:52.965Z,23.48
2022-08-25T02:09:01.110Z,23.51
2022-08-25T02:14:04.105Z,23.51
2022-08-25T02:19:08.136Z,23.46
2022-08-25T02:24:13.049Z,23.44
2022-08-25T02:29:16.935Z,23.41
2022-08-25T02:34:20.055Z,23.38
2022-08-25T02:39:24.306Z,23.49
2022-08-25T02:44:27.220Z,23.48
2022-08-25T02:49:32.170Z,23.46
2022-08-25T02:54:36.949Z,23.47
2022-08-25T02:59:40.201Z,23.49
2022-08-25T03:04:43.558Z,23.56
2022-08-25T03:09:48.286Z,23.49
2022-08-25T03:14:51.247Z,23.52
2022-08-25T03:19:54.222Z,23.51
2022-08-25T03:25:23.489Z,23.50
2022-08-25T03:30:27.375Z,23.51
2022-08-25T03:35:31.043Z,23.50
2022-08-25T03:40:35.452Z,23.56
2022-08-25T03:45:41.350Z,23.55
2022-08-25T03:50:51.535Z,23.51
2022-08-25T03:55:56.226Z,23.50
2022-08-25T04:01:00.575Z,23.45
2022-08-25T04:06:04.226Z,23.46
2022-08-25T04:11:09.670Z,23.44
2022-08-25T04:16:14.387Z,23.47
2022-08-25T04:21:18.263Z,23.51
2022-08-25T04:26:23.858Z,23.47
2022-08-25T04:31:27.593Z,23.47
2022-08-25T04:36:30.795Z,23.51
2022-08-25T04:41:35.944Z,23.58
2022-08-25T04:46:38.948Z,23.57
2022-08-25T04:51:42.244Z,23.61
2022-08-25T04:56:46.812Z,23.64
2022-08-25T05:01:52.332Z,23.61
2022-08-25T05:06:55.425Z,23.61
2022-08-25T05:11:59.746Z,23.59
2022-08-25T05:17:02.915Z,23.60
2022-08-25T05:22:06.802Z,23.59
2022-08-25T05:27:11.111Z,23.63
2022-08-25T05:32:14.101Z,23.62
2022-08-25T05:37:17.168Z,23.71
2022-08-25T05:42:22.537Z,23.74
2022-08-25T05:47:25.509Z,23.78
2022-08-25T05:52:28.905Z,23.78
2022-08-25T05:57:33.448Z,23.83
2022-08-25T06:02:44.176Z,23.89
2022-08-25T06:07:48.020Z,23.97
2022-08-25T06:12:52.334Z,24.04
2022-08-25T06:18:00.995Z,24.13
2022-08-25T06:23:05.295Z,24.14
2022-08-25T06:28:09.597Z,24.27
2022-08-25T06:33:12.779Z,24.38
2022-08-25T06:38:15.716Z,24.50
2022-08-25T06:43:20.078Z,24.60
2022-08-25T06:48:24.044Z,24.73
2022-08-25T06:53:27.055Z,24.84
2022-08-25T06:58:31.651Z,24.96
2022-08-25T07:03:34.669Z,25.07
2022-08-25T07:08:38.383Z,25.24
2022-08-25T07:13:43.093Z,25.36
2022-08-25T07:18:46.183Z,25.50
2022-08-25T07:23:49.130Z,25.61
2022-08-25T07:28:53.467Z,25.73
2022-08-25T07:34:15.004Z,25.78
2022-08-25T07:39:22.018Z,25.84
2022-08-25T07:44:28.145Z,25.90
2022-08-25T07:49:35.906Z,25.97
2022-08-25T07:54:42.663Z,25.99
2022-08-25T07:59:51.524Z,25.97
2022-08-25T08:04:54.655Z,25.98
2022-08-25T08:10:25.635Z,26.00
2022-08-25T08:15:22.630Z,26.05
2022-08-25T08:20:25.731Z,26.05
2022-08-25T08:25:28.865Z,26.01
2022-08-25T08:30:33.563Z,26.02
2022-08-25T08:35:37.957Z,26.07
2022-08-25T08:41:09.047Z,26.09
2022-08-25T08:46:13.663Z,26.36
2022-08-25T08:51:20.484Z,26.45
2022-08-25T08:56:30.978Z,26.54
2022-08-25T09:01:36.647Z,26.65
2022-08-25T09:06:42.369Z,26.63
2022-08-25T09:11:52.581Z,26.74
2022-08-25T09:17:02.069Z,26.85
2022-08-25T09:22:35.201Z,27.01
2022-08-25T09:27:35.258Z,27.17
2022-08-25T09:32:41.768Z,27.45
2022-08-25T09:37:59.133Z,27.72
2022-08-25T09:43:05.721Z,27.85
2022-08-25T09:48:23.711Z,28.02
2022-08-25T09:53:27.834Z,29.47
2022-08-25T09:58:31.004Z,34.66
2022-08-25T10:03:36.862Z,32.07
2022-08-25T10:08:41.341Z,31.56
2022-08-25T10:13:46.885Z,31.50
2022-08-25T10:19:02.518Z,31.79
2022-08-25T10:24:06.238Z,31.83
2022-08-25T10:29:17.701Z,31.83
2022-08-25T10:34:29.619Z,32.06
2022-08-25T10:39:40.766Z,32.25
2022-08-25T10:45:06.216Z,32.41
2022-08-25T10:50:15.472Z,32.56
2022-08-25T10:55:22.372Z,32.66
2022-08-25T11:00:31.670Z,32.93
2022-08-25T11:05:41.338Z,33.13
2022-08-25T11:10:48.024Z,33.34
2022-08-25T11:16:15.478Z,33.76
2022-08-25T11:21:22.030Z,34.18
2022-08-25T11:26:32.873Z,34.48
2022-08-25T11:31:41.021Z,34.89
2022-08-25T11:36:51.480Z,35.26
2022-08-25T11:42:01.918Z,35.86
2022-08-25T11:47:21.272Z,36.25
2022-08-25T11:52:46.042Z,36.63
2022-08-25T11:57:53.254Z,37.02
2022-08-25T12:03:01.274Z,37.32
2022-08-25T12:08:24.915Z,36.54
2022-08-25T12:13:43.283Z,36.51
2022-08-25T12:18:46.675Z,36.50
2022-08-25T12:24:09.512Z,36.50
2022-08-25T12:29:16.206Z,36.45
2022-08-25T12:34:38.095Z,36.45
2022-08-25T12:39:46.772Z,36.43
2022-08-25T12:45:08.566Z,36.44
2022-08-25T12:50:27.122Z,36.71
2022-08-25T12:55:31.641Z,38.30
2022-08-25T13:00:38.583Z,39.59
2022-08-25T13:06:11.041Z,39.99
2022-08-25T13:11:20.377Z,39.75
2022-08-25T13:16:29.065Z,38.91
2022-08-25T13:21:35.257Z,38.58
2022-08-25T13:26:48.688Z,38.02
2022-08-25T13:31:55.047Z,37.37
2022-08-25T13:37:15.645Z,36.73
2022-08-25T13:42:23.971Z,36.32
2022-08-25T13:47:43.816Z,35.91
2022-08-25T13:52:50.759Z,35.61
2022-08-25T13:57:55.220Z,35.41
2022-08-25T14:03:00.735Z,35.21
2022-08-25T14:08:16.217Z,35.05
2022-08-25T14:13:33.069Z,34.92
2022-08-25T14:18:36.444Z,34.76
2022-08-25T14:23:40.380Z,34.57
2022-08-25T14:28:44.734Z,34.44
2022-08-25T14:33:51.803Z,34.25
2022-08-25T14:38:56.596Z,34.05
2022-08-25T14:44:01.040Z,33.88
2022-08-25T14:49:06.327Z,33.71
2022-08-25T14:54:13.087Z,33.57
2022-08-25T14:59:18.527Z,33.35
2022-08-25T15:04:23.570Z,33.13
2022-08-25T15:09:33.299Z,32.91
2022-08-25T15:14:40.782Z,32.69
2022-08-25T15:19:44.100Z,32.45
2022-08-25T15:24:48.729Z,32.27
2022-08-25T15:29:53.117Z,32.06
2022-08-25T15:34:56.882Z,31.83
2022-08-25T15:39:59.851Z,31.63
2022-08-25T15:45:05.192Z,31.43
2022-08-25T15:50:10.281Z,31.28
2022-08-25T15:55:13.399Z,31.10
2022-08-25T16:00:19.126Z,30.96
2022-08-25T16:05:25.724Z,30.82
2022-08-25T16:10:29.287Z,30.68
2022-08-25T16:15:33.861Z,30.55
2022-08-25T16:20:37.633Z,30.42
2022-08-25T16:25:41.758Z,30.26
2022-08-25T16:30:53.061Z,29.64
2022-08-25T16:36:05.164Z,29.32
2022-08-25T16:41:10.646Z,29.16
2022-08-25T16:46:15.840Z,29.05
2022-08-25T16:51:22.629Z,29.00
2022-08-25T16:56:28.897Z,28.89
2022-08-25T17:01:35.526Z,28.77
2022-08-25T17:06:39.758Z,28.65
2022-08-25T17:11:45.390Z,28.65
2022-08-25T17:16:51.259Z,28.59
2022-08-25T17:21:55.208Z,28.57
2022-08-25T17:26:58.227Z,28.54
2022-08-25T17:32:03.433Z,28.45
2022-08-25T17:37:06.838Z,28.42
2022-08-25T17:42:10.460Z,28.36
2022-08-25T17:47:14.774Z,28.28
2022-08-25T17:52:22.478Z,28.16
2022-08-25T17:57:28.702Z,28.09
2022-08-25T18:02:33.087Z,27.99
2022-08-25T18:07:36.419Z,27.94
2022-08-25T18:12:39.942Z,27.84
2022-08-25T18:17:44.333Z,27.75
2022-08-25T18:22:48.264Z,27.65
2022-08-25T18:27:51.306Z,27.54
2022-08-25T18:32:55.906Z,27.45
2022-08-25T18:38:16.386Z,27.37
2022-08-25T18:43:20.197Z,27.27
2022-08-25T18:48:26.619Z,27.20
2022-08-25T18:53:49.708Z,27.12
2022-08-25T18:58:53.908Z,27.02
2022-08-25T19:03:58.328Z,26.96
2022-08-25T19:09:02.184Z,26.92
2022-08-25T19:14:12.148Z,26.85
2022-08-25T19:19:16.896Z,26.85
2022-08-25T19:24:20.694Z,26.81
2022-08-25T19:29:24.573Z,26.77
2022-08-25T19:34:31.994Z,26.75
2022-08-25T19:39:36.408Z,26.69
2022-08-25T19:44:42.363Z,26.65
2022-08-25T19:49:47.783Z,26.60
2022-08-25T19:54:52.750Z,26.52
2022-08-25T19:59:55.934Z,26.46
2022-08-25T20:05:00.970Z,26.39
2022-08-25T20:10:06.807Z,26.31
2022-08-25T20:15:10.383Z,26.24
2022-08-25T20:20:16.498Z,26.17
2022-08-25T20:25:21.064Z,26.10
2022-08-25T20:30:28.009Z,25.99
2022-08-25T20:35:32.437Z,25.89
2022-08-25T20:40:35.534Z,25.80
2022-08-25T20:45:40.328Z,25.70
2022-08-25T20:50:45.091Z,25.59
2022-08-25T20:55:48.290Z,25.46
2022-08-25T21:00:51.248Z,25.39
2022-08-25T21:05:57.198Z,25.32
2022-08-25T21:11:00.325Z,25.24
2022-08-25T21:16:03.986Z,25.19
2022-08-25T21:21:14.093Z,25.07
2022-08-25T21:26:18.452Z,25.04
2022-08-25T21:31:21.923Z,24.92
2022-08-25T21:36:29.042Z,24.88
2022-08-25T21:41:33.246Z,24.81
2022-08-25T21:46:37.478Z,24.74
2022-08-25T21:51:43.307Z,24.65
2022-08-25T21:56:49.768Z,24.53
2022-08-25T22:01:55.550Z,24.45
2022-08-25T22:07:00.881Z,24.38
2022-08-25T22:12:06.615Z,24.32
2022-08-25T22:17:13.938Z,24.22
2022-08-25T22:22:21.613Z,24.17
2022-08-25T22:27:25.177Z,24.15
2022-08-25T22:32:28.259Z,24.12
2022-08-25T22:37:32.600Z,24.06
2022-08-25T22:42:38.084Z,23.96
2022-08-25T22:47:41.316Z,23.89
2022-08-25T22:52:45.726Z,23.86
2022-08-25T22:57:48.689Z,23.81
2022-08-25T23:02:53.356Z,23.71
2022-08-25T23:07:58.239Z,23.69
2022-08-25T23:13:01.327Z,23.61
2022-08-25T23:18:04.361Z,23.56
2022-08-25T23:23:08.864Z,23.58
2022-08-25T23:28:12.049Z,23.51
2022-08-25T23:33:18.703Z,23.42
2022-08-25T23:38:24.410Z,23.44
2022-08-25T23:43:27.506Z,23.44
2022-08-25T23:48:30.690Z,23.35
2022-08-25T23:53:35.562Z,23.28
2022-08-25T23:58:38.580Z,23.26
